sensor_id;sensor_type;location;lat;lon;timestamp;pressure;altitude;pressure_sealevel;temperature;humidity
57574;BME280;68988;49.000;21.242;2023-04-12T00:00:53;97807.94;;;22.61;35.54
57574;BME280;68988;49.000;21.242;2023-04-12T00:03:19;97806.38;;;22.60;35.48
57574;BME280;68988;49.000;21.242;2023-04-12T00:05:46;97804.25;;;22.57;35.61
57574;BME280;68988;49.000;21.242;2023-04-12T00:08:13;97801.06;;;22.55;35.55
57574;BME280;68988;49.000;21.242;2023-04-12T00:10:40;97800.47;;;22.63;35.55
57574;BME280;68988;49.000;21.242;2023-04-12T00:13:05;97795.69;;;22.60;35.40
57574;BME280;68988;49.000;21.242;2023-04-12T00:15:32;97795.97;;;22.59;35.71
57574;BME280;68988;49.000;21.242;2023-04-12T00:17:57;97793.56;;;22.57;35.64
57574;BME280;68988;49.000;21.242;2023-04-12T00:20:22;97787.13;;;22.58;35.46
57574;BME280;68988;49.000;21.242;2023-04-12T00:22:48;97781.28;;;22.56;35.66
57574;BME280;68988;49.000;21.242;2023-04-12T00:25:14;97781.78;;;22.63;35.51
57574;BME280;68988;49.000;21.242;2023-04-12T00:27:39;97784.47;;;22.58;35.64
57574;BME280;68988;49.000;21.242;2023-04-12T00:30:06;97776.72;;;22.57;35.54
57574;BME280;68988;49.000;21.242;2023-04-12T00:32:32;97777.00;;;22.55;35.61
57574;BME280;68988;49.000;21.242;2023-04-12T00:34:57;97776.44;;;22.58;35.42
57574;BME280;68988;49.000;21.242;2023-04-12T00:37:23;97774.31;;;22.55;35.48
57574;BME280;68988;49.000;21.242;2023-04-12T00:39:48;97770.09;;;22.54;35.64
57574;BME280;68988;49.000;21.242;2023-04-12T00:42:14;97769.25;;;22.53;35.55
57574;BME280;68988;49.000;21.242;2023-04-12T00:44:39;97766.38;;;22.50;35.58
57574;BME280;68988;49.000;21.242;2023-04-12T00:47:05;97767.69;;;22.52;35.41
57574;BME280;68988;49.000;21.242;2023-04-12T00:49:32;97762.63;;;22.51;35.60
57574;BME280;68988;49.000;21.242;2023-04-12T00:52:07;97766.84;;;22.57;35.39
57574;BME280;68988;49.000;21.242;2023-04-12T00:54:34;97761.25;;;22.53;35.65
57574;BME280;68988;49.000;21.242;2023-04-12T00:57:00;97759.94;;;22.51;35.53
57574;BME280;68988;49.000;21.242;2023-04-12T00:59:26;97766.88;;;22.52;35.56
57574;BME280;68988;49.000;21.242;2023-04-12T01:01:53;97758.34;;;22.50;35.60
57574;BME280;68988;49.000;21.242;2023-04-12T01:04:19;97762.91;;;22.49;35.56
57574;BME280;68988;49.000;21.242;2023-04-12T01:17:10;97762.63;;;22.46;35.44
57574;BME280;68988;49.000;21.242;2023-04-12T01:19:55;97764.75;;;22.49;35.35
57574;BME280;68988;49.000;21.242;2023-04-12T01:25:05;97758.91;;;22.47;35.68
57574;BME280;68988;49.000;21.242;2023-04-12T01:27:47;97765.84;;;22.48;35.54
57574;BME280;68988;49.000;21.242;2023-04-12T01:30:16;97763.19;;;22.43;35.63
57574;BME280;68988;49.000;21.242;2023-04-12T01:32:45;97765.34;;;22.41;35.71
57574;BME280;68988;49.000;21.242;2023-04-12T01:35:13;97762.69;;;22.41;35.77
57574;BME280;68988;49.000;21.242;2023-04-12T01:37:40;97762.97;;;22.39;35.42
57574;BME280;68988;49.000;21.242;2023-04-12T01:40:06;97767.25;;;22.40;35.54
57574;BME280;68988;49.000;21.242;2023-04-12T01:42:33;97767.53;;;22.39;35.66
57574;BME280;68988;49.000;21.242;2023-04-12T01:44:59;97770.19;;;22.39;35.41
57574;BME280;68988;49.000;21.242;2023-04-12T01:47:24;97775.25;;;22.40;35.72
57574;BME280;68988;49.000;21.242;2023-04-12T01:50:23;97775.72;;;22.47;35.58
57574;BME280;68988;49.000;21.242;2023-04-12T01:53:07;97766.97;;;22.42;35.57
57574;BME280;68988;49.000;21.242;2023-04-12T01:55:36;97773.41;;;22.35;35.72
57574;BME280;68988;49.000;21.242;2023-04-12T01:58:03;97772.31;;;22.37;35.62
57574;BME280;68988;49.000;21.242;2023-04-12T02:00:30;97778.75;;;22.35;35.68
57574;BME280;68988;49.000;21.242;2023-04-12T02:02:58;97775.00;;;22.37;35.50
57574;BME280;68988;49.000;21.242;2023-04-12T02:05:24;97771.75;;;22.45;35.55
57574;BME280;68988;49.000;21.242;2023-04-12T02:07:50;97765.69;;;22.34;35.55
57574;BME280;68988;49.000;21.242;2023-04-12T02:10:26;97772.84;;;22.39;35.47
57574;BME280;68988;49.000;21.242;2023-04-12T02:12:52;97770.19;;;22.33;35.60
57574;BME280;68988;49.000;21.242;2023-04-12T02:15:18;97768.63;;;22.32;35.60
57574;BME280;68988;49.000;21.242;2023-04-12T02:17:45;97768.09;;;22.30;35.79
57574;BME280;68988;49.000;21.242;2023-04-12T02:20:11;97769.41;;;22.33;35.54
57574;BME280;68988;49.000;21.242;2023-04-12T02:22:36;97773.41;;;22.35;35.61
57574;BME280;68988;49.000;21.242;2023-04-12T02:25:03;97771.03;;;22.34;35.55
57574;BME280;68988;49.000;21.242;2023-04-12T02:27:30;97777.69;;;22.31;35.55
57574;BME280;68988;49.000;21.242;2023-04-12T02:29:56;97772.38;;;22.31;35.69
57574;BME280;68988;49.000;21.242;2023-04-12T02:32:22;97757.13;;;22.27;35.73
57574;BME280;68988;49.000;21.242;2023-04-12T02:34:48;97772.38;;;22.31;35.58
57574;BME280;68988;49.000;21.242;2023-04-12T02:37:17;97768.91;;;22.31;35.72
57574;BME280;68988;49.000;21.242;2023-04-12T02:39:46;97764.09;;;22.28;35.43
57574;BME280;68988;49.000;21.242;2023-04-12T02:42:12;97775.28;;;22.30;35.38
57574;BME280;68988;49.000;21.242;2023-04-12T02:44:37;97773.69;;;22.29;35.46
57574;BME280;68988;49.000;21.242;2023-04-12T02:47:02;97767.53;;;22.28;35.72
57574;BME280;68988;49.000;21.242;2023-04-12T02:49:28;97765.94;;;22.27;35.77
57574;BME280;68988;49.000;21.242;2023-04-12T02:51:53;97767.31;;;22.25;35.64
57574;BME280;68988;49.000;21.242;2023-04-12T02:54:19;97761.69;;;22.26;35.66
57574;BME280;68988;49.000;21.242;2023-04-12T02:56:45;97768.88;;;22.26;35.67
57574;BME280;68988;49.000;21.242;2023-04-12T02:59:10;97768.09;;;22.25;35.80
57574;BME280;68988;49.000;21.242;2023-04-12T03:01:36;97770.50;;;22.27;35.52
57574;BME280;68988;49.000;21.242;2023-04-12T03:04:03;97775.03;;;22.26;35.53
57574;BME280;68988;49.000;21.242;2023-04-12T03:06:28;97782.25;;;22.26;35.66
57574;BME280;68988;49.000;21.242;2023-04-12T03:08:54;97768.88;;;22.26;35.48
57574;BME280;68988;49.000;21.242;2023-04-12T03:11:21;97774.50;;;22.24;35.53
57574;BME280;68988;49.000;21.242;2023-04-12T03:13:47;97777.19;;;22.24;35.68
57574;BME280;68988;49.000;21.242;2023-04-12T03:16:21;97781.69;;;22.29;35.47
57574;BME280;68988;49.000;21.242;2023-04-12T03:18:48;97779.34;;;22.22;35.72
57574;BME280;68988;49.000;21.242;2023-04-12T03:21:14;97779.34;;;22.22;35.94
57574;BME280;68988;49.000;21.242;2023-04-12T03:23:40;97782.00;;;22.22;35.66
57574;BME280;68988;49.000;21.242;2023-04-12T03:26:06;97779.88;;;22.19;35.48
57574;BME280;68988;49.000;21.242;2023-04-12T03:28:31;97785.19;;;22.24;35.57
57574;BME280;68988;49.000;21.242;2023-04-12T03:30:57;97787.84;;;22.24;35.39
57574;BME280;68988;49.000;21.242;2023-04-12T03:33:23;97786.28;;;22.23;35.36
57574;BME280;68988;49.000;21.242;2023-04-12T03:35:48;97791.06;;;22.21;35.48
57574;BME280;68988;49.000;21.242;2023-04-12T03:38:14;97788.94;;;22.23;35.45
57574;BME280;68988;49.000;21.242;2023-04-12T03:40:39;97793.19;;;22.24;35.57
57574;BME280;68988;49.000;21.242;2023-04-12T03:43:05;97786.00;;;22.20;35.51
57574;BME280;68988;49.000;21.242;2023-04-12T03:45:30;97786.28;;;22.18;35.46
57574;BME280;68988;49.000;21.242;2023-04-12T03:47:56;97790.56;;;22.19;35.66
57574;BME280;68988;49.000;21.242;2023-04-12T03:50:21;97784.44;;;22.18;35.55
57574;BME280;68988;49.000;21.242;2023-04-12T03:52:47;97793.50;;;22.17;35.42
57574;BME280;68988;49.000;21.242;2023-04-12T03:55:13;97795.41;;;22.17;35.71
57574;BME280;68988;49.000;21.242;2023-04-12T03:57:42;97795.41;;;22.17;35.67
57574;BME280;68988;49.000;21.242;2023-04-12T04:00:08;97797.25;;;22.16;35.31
57574;BME280;68988;49.000;21.242;2023-04-12T04:02:34;97792.19;;;22.15;35.49
57574;BME280;68988;49.000;21.242;2023-04-12T04:04:59;97791.91;;;22.16;35.48
57574;BME280;68988;49.000;21.242;2023-04-12T04:07:26;97797.53;;;22.15;35.59
57574;BME280;68988;49.000;21.242;2023-04-12T04:09:53;97792.72;;;22.17;35.37
57574;BME280;68988;49.000;21.242;2023-04-12T04:12:18;97785.50;;;22.17;35.55
57574;BME280;68988;49.000;21.242;2023-04-12T04:14:44;97770.84;;;22.10;35.30
57574;BME280;68988;49.000;21.242;2023-04-12T04:17:09;97785.78;;;22.16;35.75
57574;BME280;68988;49.000;21.242;2023-04-12T04:19:35;97787.38;;;22.17;35.75
57574;BME280;68988;49.000;21.242;2023-04-12T04:22:00;97783.06;;;22.21;35.46
57574;BME280;68988;49.000;21.242;2023-04-12T04:24:26;97782.00;;;22.22;35.55
57574;BME280;68988;49.000;21.242;2023-04-12T04:26:51;97788.66;;;22.25;35.28
57574;BME280;68988;49.000;21.242;2023-04-12T04:29:19;97776.91;;;22.26;35.38
57574;BME280;68988;49.000;21.242;2023-04-12T04:31:44;97774.50;;;22.29;35.16
57574;BME280;68988;49.000;21.242;2023-04-12T04:34:10;97771.00;;;22.29;35.37
57574;BME280;68988;49.000;21.242;2023-04-12T04:36:36;97776.63;;;22.27;35.41
57574;BME280;68988;49.000;21.242;2023-04-12T04:39:02;97777.72;;;22.26;35.39
57574;BME280;68988;49.000;21.242;2023-04-12T04:41:30;97783.84;;;22.27;35.28
57574;BME280;68988;49.000;21.242;2023-04-12T04:43:59;97784.13;;;22.25;35.42
57574;BME280;68988;49.000;21.242;2023-04-12T04:46:24;97787.31;;;22.27;35.45
57574;BME280;68988;49.000;21.242;2023-04-12T04:48:50;97788.13;;;22.28;35.47
57574;BME280;68988;49.000;21.242;2023-04-12T04:51:19;97799.59;;;22.28;35.33
57574;BME280;68988;49.000;21.242;2023-04-12T04:53:45;97799.59;;;22.28;35.47
57574;BME280;68988;49.000;21.242;2023-04-12T04:56:10;97798.00;;;22.27;35.38
57574;BME280;68988;49.000;21.242;2023-04-12T04:58:36;97804.38;;;22.37;35.48
57574;BME280;68988;49.000;21.242;2023-04-12T05:01:02;97807.03;;;22.37;35.73
57574;BME280;68988;49.000;21.242;2023-04-12T05:03:27;97798.47;;;22.45;35.66
57574;BME280;68988;49.000;21.242;2023-04-12T05:05:54;97812.63;;;21.85;34.71
57574;BME280;68988;49.000;21.242;2023-04-12T05:08:22;97811.97;;;22.09;35.41
57574;BME280;68988;49.000;21.242;2023-04-12T05:10:50;97819.16;;;22.18;35.52
57574;BME280;68988;49.000;21.242;2023-04-12T05:13:17;97820.72;;;22.25;35.84
57574;BME280;68988;49.000;21.242;2023-04-12T05:15:42;97819.91;;;22.29;35.82
57574;BME280;68988;49.000;21.242;2023-04-12T05:18:07;97826.03;;;22.35;35.57
57574;BME280;68988;49.000;21.242;2023-04-12T05:20:33;97826.28;;;22.39;35.90
57574;BME280;68988;49.000;21.242;2023-04-12T05:22:58;97823.84;;;22.42;35.73
57574;BME280;68988;49.000;21.242;2023-04-12T05:25:24;97814.22;;;22.41;35.93
57574;BME280;68988;49.000;21.242;2023-04-12T05:27:49;97809.16;;;22.40;35.80
57574;BME280;68988;49.000;21.242;2023-04-12T05:30:15;97816.06;;;22.46;35.87
57574;BME280;68988;49.000;21.242;2023-04-12T05:32:40;97811.28;;;22.48;35.87
57574;BME280;68988;49.000;21.242;2023-04-12T05:35:06;97805.66;;;22.49;35.98
57574;BME280;68988;49.000;21.242;2023-04-12T05:37:32;97813.91;;;22.53;36.01
57574;BME280;68988;49.000;21.242;2023-04-12T05:39:57;97796.81;;;22.54;36.46
57574;BME280;68988;49.000;21.242;2023-04-12T05:42:23;97809.59;;;22.57;36.13
57574;BME280;68988;49.000;21.242;2023-04-12T05:44:48;97816.53;;;22.58;36.17
57574;BME280;68988;49.000;21.242;2023-04-12T05:47:15;97827.75;;;22.60;35.96
57574;BME280;68988;49.000;21.242;2023-04-12T05:49:40;97820.25;;;22.62;35.97
57574;BME280;68988;49.000;21.242;2023-04-12T05:52:05;97822.88;;;22.67;36.13
57574;BME280;68988;49.000;21.242;2023-04-12T05:54:31;97809.50;;;22.73;36.62
57574;BME280;68988;49.000;21.242;2023-04-12T05:56:56;97811.34;;;22.77;36.80
57574;BME280;68988;49.000;21.242;2023-04-12T05:59:22;97815.31;;;22.80;37.02
57574;BME280;68988;49.000;21.242;2023-04-12T06:01:47;97809.94;;;22.85;37.25
57574;BME280;68988;49.000;21.242;2023-04-12T06:04:13;97808.28;;;22.89;37.26
57574;BME280;68988;49.000;21.242;2023-04-12T06:06:39;97813.31;;;22.96;37.03
57574;BME280;68988;49.000;21.242;2023-04-12T06:09:04;97807.72;;;22.92;37.12
57574;BME280;68988;49.000;21.242;2023-04-12T06:11:30;97810.66;;;22.96;37.50
57574;BME280;68988;49.000;21.242;2023-04-12T06:13:58;97811.38;;;23.01;37.38
57574;BME280;68988;49.000;21.242;2023-04-12T06:16:24;97813.78;;;23.03;37.39
57574;BME280;68988;49.000;21.242;2023-04-12T06:18:50;97806.09;;;22.96;37.23
57574;BME280;68988;49.000;21.242;2023-04-12T06:21:15;97805.53;;;22.99;37.65
57574;BME280;68988;49.000;21.242;2023-04-12T06:23:40;97813.56;;;22.99;37.38
57574;BME280;68988;49.000;21.242;2023-04-12T06:26:06;97810.31;;;23.02;37.71
57574;BME280;68988;49.000;21.242;2023-04-12T06:28:31;97809.22;;;23.09;37.57
57574;BME280;68988;49.000;21.242;2023-04-12T06:30:57;97806.31;;;23.00;37.64
57574;BME280;68988;49.000;21.242;2023-04-12T06:33:22;97814.06;;;23.01;37.52
57574;BME280;68988;49.000;21.242;2023-04-12T06:35:48;97808.47;;;22.98;37.32
57574;BME280;68988;49.000;21.242;2023-04-12T06:38:13;97813.56;;;22.99;37.61
57574;BME280;68988;49.000;21.242;2023-04-12T06:40:39;97813.00;;;23.02;37.56
57574;BME280;68988;49.000;21.242;2023-04-12T06:43:05;97815.72;;;22.97;37.59
57574;BME280;68988;49.000;21.242;2023-04-12T06:45:30;97816.72;;;23.01;37.70
57574;BME280;68988;49.000;21.242;2023-04-12T06:47:56;97816.28;;;22.94;37.86
57574;BME280;68988;49.000;21.242;2023-04-12T06:50:21;97815.66;;;23.02;37.38
57574;BME280;68988;49.000;21.242;2023-04-12T06:52:47;97828.47;;;23.05;37.54
57574;BME280;68988;49.000;21.242;2023-04-12T06:55:13;97827.69;;;23.05;37.87
57574;BME280;68988;49.000;21.242;2023-04-12T06:57:40;97833.03;;;23.05;38.03
57574;BME280;68988;49.000;21.242;2023-04-12T07:00:06;97828.97;;;23.07;38.04
57574;BME280;68988;49.000;21.242;2023-04-12T07:02:32;97831.94;;;23.06;38.17
57574;BME280;68988;49.000;21.242;2023-04-12T07:04:57;97831.16;;;23.05;38.12
57574;BME280;68988;49.000;21.242;2023-04-12T07:07:23;97838.94;;;23.02;38.25
57574;BME280;68988;49.000;21.242;2023-04-12T07:09:48;97831.19;;;23.00;38.41
57574;BME280;68988;49.000;21.242;2023-04-12T07:12:13;97833.34;;;22.98;38.61
57574;BME280;68988;49.000;21.242;2023-04-12T07:14:39;97844.03;;;22.98;38.33
57574;BME280;68988;49.000;21.242;2023-04-12T07:17:04;97840.78;;;23.06;38.46
57574;BME280;68988;49.000;21.242;2023-04-12T07:19:30;97838.06;;;23.12;38.70
57574;BME280;68988;49.000;21.242;2023-04-12T07:21:56;97838.06;;;23.12;38.78
57574;BME280;68988;49.000;21.242;2023-04-12T07:24:22;97838.59;;;23.14;39.27
57574;BME280;68988;49.000;21.242;2023-04-12T07:26:48;97839.13;;;23.16;39.20
57574;BME280;68988;49.000;21.242;2023-04-12T07:29:14;97831.59;;;23.18;39.37
57574;BME280;68988;49.000;21.242;2023-04-12T07:31:41;97837.25;;;23.16;39.46
57574;BME280;68988;49.000;21.242;2023-04-12T07:34:06;97839.34;;;23.19;39.61
57574;BME280;68988;49.000;21.242;2023-04-12T07:36:32;97838.56;;;23.19;39.74
57574;BME280;68988;49.000;21.242;2023-04-12T07:38:57;97838.78;;;23.22;40.02
57574;BME280;68988;49.000;21.242;2023-04-12T07:41:23;97841.19;;;23.24;39.92
57574;BME280;68988;49.000;21.242;2023-04-12T07:43:48;97836.88;;;23.28;40.17
57574;BME280;68988;49.000;21.242;2023-04-12T07:46:13;97838.44;;;23.29;40.33
57574;BME280;68988;49.000;21.242;2023-04-12T07:48:39;97842.78;;;23.25;39.91
57574;BME280;68988;49.000;21.242;2023-04-12T07:51:04;97842.25;;;23.23;40.20
57574;BME280;68988;49.000;21.242;2023-04-12T07:53:30;97840.13;;;23.25;40.30
57574;BME280;68988;49.000;21.242;2023-04-12T07:55:55;97835.25;;;23.27;40.42
57574;BME280;68988;49.000;21.242;2023-04-12T07:58:22;97838.22;;;23.26;40.63
57574;BME280;68988;49.000;21.242;2023-04-12T08:00:48;97837.66;;;23.29;40.92
57574;BME280;68988;49.000;21.242;2023-04-12T08:03:15;97841.97;;;23.24;40.59
57574;BME280;68988;49.000;21.242;2023-04-12T08:05:41;97837.66;;;23.29;40.67
57574;BME280;68988;49.000;21.242;2023-04-12T08:08:07;97842.78;;;23.25;40.74
57574;BME280;68988;49.000;21.242;2023-04-12T08:10:36;97842.78;;;23.25;40.58
57574;BME280;68988;49.000;21.242;2023-04-12T08:13:03;97836.88;;;23.28;40.44
57574;BME280;68988;49.000;21.242;2023-04-12T08:15:29;97833.09;;;23.29;40.48
57574;BME280;68988;49.000;21.242;2023-04-12T08:17:55;97836.88;;;23.28;40.50
57574;BME280;68988;49.000;21.242;2023-04-12T08:20:20;97833.91;;;23.30;40.37
57574;BME280;68988;49.000;21.242;2023-04-12T08:22:46;97841.13;;;23.29;40.99
57574;BME280;68988;49.000;21.242;2023-04-12T08:25:12;97835.78;;;23.29;40.72
57574;BME280;68988;49.000;21.242;2023-04-12T08:27:40;97841.66;;;23.31;41.10
57574;BME280;68988;49.000;21.242;2023-04-12T08:30:06;97824.56;;;23.27;40.99
57574;BME280;68988;49.000;21.242;2023-04-12T08:32:32;97838.41;;;23.34;41.56
57574;BME280;68988;49.000;21.242;2023-04-12T08:34:58;97840.25;;;23.39;41.51
57574;BME280;68988;49.000;21.242;2023-04-12T08:37:24;97830.41;;;23.34;41.53
57574;BME280;68988;49.000;21.242;2023-04-12T08:39:50;97834.84;;;23.44;41.33
57574;BME280;68988;49.000;21.242;2023-04-12T08:42:16;97837.72;;;23.48;41.48
57574;BME280;68988;49.000;21.242;2023-04-12T08:44:41;97831.81;;;23.51;41.30
57574;BME280;68988;49.000;21.242;2023-04-12T08:47:09;97829.97;;;23.51;41.50
57574;BME280;68988;49.000;21.242;2023-04-12T08:49:35;97831.53;;;23.52;41.34
57574;BME280;68988;49.000;21.242;2023-04-12T08:52:05;97827.78;;;23.53;41.52
57574;BME280;68988;49.000;21.242;2023-04-12T08:54:32;97818.91;;;23.58;41.52
57574;BME280;68988;49.000;21.242;2023-04-12T08:56:59;97828.25;;;23.60;41.10
57574;BME280;68988;49.000;21.242;2023-04-12T08:59:29;97823.47;;;23.57;41.46
57574;BME280;68988;49.000;21.242;2023-04-12T09:01:55;97825.28;;;23.62;41.39
57574;BME280;68988;49.000;21.242;2023-04-12T09:04:21;97827.41;;;23.65;41.74
57574;BME280;68988;49.000;21.242;2023-04-12T09:06:47;97829.78;;;23.67;41.50
57574;BME280;68988;49.000;21.242;2023-04-12T09:09:13;97833.03;;;23.64;41.56
57574;BME280;68988;49.000;21.242;2023-04-12T09:11:38;97834.88;;;23.68;41.70
57574;BME280;68988;49.000;21.242;2023-04-12T09:14:19;97843.41;;;23.70;41.51
57574;BME280;68988;49.000;21.242;2023-04-12T09:16:46;97841.78;;;23.69;41.59
57574;BME280;68988;49.000;21.242;2023-04-12T09:19:12;97852.50;;;23.69;41.70
57574;BME280;68988;49.000;21.242;2023-04-12T09:21:53;97837.47;;;23.73;41.59
57574;BME280;68988;49.000;21.242;2023-04-12T09:24:19;97843.47;;;23.65;41.25
57574;BME280;68988;49.000;21.242;2023-04-12T09:27:04;97844.75;;;23.68;41.12
57574;BME280;68988;49.000;21.242;2023-04-12T09:29:31;97849.31;;;23.67;40.79
57574;BME280;68988;49.000;21.242;2023-04-12T09:32:00;97848.53;;;23.67;40.62
57574;BME280;68988;49.000;21.242;2023-04-12T09:34:26;97845.88;;;23.62;40.32
57574;BME280;68988;49.000;21.242;2023-04-12T09:36:51;97842.91;;;23.68;40.34
57574;BME280;68988;49.000;21.242;2023-04-12T09:39:17;97834.63;;;23.65;40.09
57574;BME280;68988;49.000;21.242;2023-04-12T09:41:43;97833.31;;;23.62;40.12
57574;BME280;68988;49.000;21.242;2023-04-12T09:44:08;97837.28;;;23.65;39.59
57574;BME280;68988;49.000;21.242;2023-04-12T09:46:35;97833.25;;;23.67;39.83
57574;BME280;68988;49.000;21.242;2023-04-12T09:49:00;97821.31;;;23.59;39.76
57574;BME280;68988;49.000;21.242;2023-04-12T09:51:29;97822.09;;;23.60;39.52
57574;BME280;68988;49.000;21.242;2023-04-12T09:54:05;97831.84;;;23.75;39.60
57574;BME280;68988;49.000;21.242;2023-04-12T09:56:32;97826.97;;;23.77;39.54
57574;BME280;68988;49.000;21.242;2023-04-12T09:59:01;97819.50;;;23.79;39.77
57574;BME280;68988;49.000;21.242;2023-04-12T10:01:28;97817.09;;;23.77;39.71
57574;BME280;68988;49.000;21.242;2023-04-12T10:03:54;97811.47;;;23.79;39.90
57574;BME280;68988;49.000;21.242;2023-04-12T10:06:20;97815.50;;;23.76;39.74
57574;BME280;68988;49.000;21.242;2023-04-12T10:08:48;97823.16;;;23.83;39.77
57574;BME280;68988;49.000;21.242;2023-04-12T10:11:13;97814.34;;;23.83;39.96
57574;BME280;68988;49.000;21.242;2023-04-12T10:13:41;97813.81;;;23.86;40.00
57574;BME280;68988;49.000;21.242;2023-04-12T10:16:08;97819.16;;;23.86;39.95
57574;BME280;68988;49.000;21.242;2023-04-12T10:18:34;97818.09;;;23.87;40.18
57574;BME280;68988;49.000;21.242;2023-04-12T10:21:02;97823.38;;;23.92;40.14
57574;BME280;68988;49.000;21.242;2023-04-12T10:23:30;97827.69;;;23.88;40.40
57574;BME280;68988;49.000;21.242;2023-04-12T10:25:56;97818.22;;;23.95;40.37
57574;BME280;68988;49.000;21.242;2023-04-12T10:28:22;97822.81;;;23.95;40.35
57574;BME280;68988;49.000;21.242;2023-04-12T10:30:48;97826.78;;;23.98;40.54
57574;BME280;68988;49.000;21.242;2023-04-12T10:33:17;97832.94;;;23.98;40.61
57574;BME280;68988;49.000;21.242;2023-04-12T10:36:01;97832.94;;;23.98;40.64
57574;BME280;68988;49.000;21.242;2023-04-12T10:38:48;97831.78;;;24.04;40.58
57574;BME280;68988;49.000;21.242;2023-04-12T10:41:31;97823.00;;;23.99;40.72
57574;BME280;68988;49.000;21.242;2023-04-12T10:44:23;97831.00;;;24.04;40.62
57574;BME280;68988;49.000;21.242;2023-04-12T10:46:49;97819.84;;;23.97;40.49
57574;BME280;68988;49.000;21.242;2023-04-12T10:49:15;97824.31;;;24.01;40.60
57574;BME280;68988;49.000;21.242;2023-04-12T10:56:53;97814.94;;;24.04;40.50
57574;BME280;68988;49.000;21.242;2023-04-12T10:59:19;97813.03;;;24.04;40.60
57574;BME280;68988;49.000;21.242;2023-04-12T11:02:10;97804.94;;;24.09;40.47
57574;BME280;68988;49.000;21.242;2023-04-12T11:04:36;97815.84;;;23.94;39.55
57574;BME280;68988;49.000;21.242;2023-04-12T11:07:08;97812.53;;;24.02;39.49
57574;BME280;68988;49.000;21.242;2023-04-12T11:14:52;97789.50;;;24.01;40.04
57574;BME280;68988;49.000;21.242;2023-04-12T11:17:23;97793.28;;;24.00;40.34
57574;BME280;68988;49.000;21.242;2023-04-12T11:19:57;97791.63;;;24.04;40.09
57574;BME280;68988;49.000;21.242;2023-04-12T11:22:28;97787.88;;;24.05;40.32
57574;BME280;68988;49.000;21.242;2023-04-12T11:24:56;97788.16;;;24.04;39.42
57574;BME280;68988;49.000;21.242;2023-04-12T11:27:23;97788.56;;;24.11;39.65
57574;BME280;68988;49.000;21.242;2023-04-12T11:29:54;97789.88;;;24.13;40.12
57574;BME280;68988;49.000;21.242;2023-04-12T11:32:25;97790.53;;;24.05;40.06
57574;BME280;68988;49.000;21.242;2023-04-12T11:34:52;97793.94;;;24.11;40.01
57574;BME280;68988;49.000;21.242;2023-04-12T11:37:19;97779.31;;;24.03;40.01
57574;BME280;68988;49.000;21.242;2023-04-12T11:39:46;97796.84;;;24.15;40.32
57574;BME280;68988;49.000;21.242;2023-04-12T11:42:20;97786.13;;;24.15;40.28
57574;BME280;68988;49.000;21.242;2023-04-12T11:44:47;97788.56;;;24.11;40.40
57574;BME280;68988;49.000;21.242;2023-04-12T11:47:17;97789.38;;;24.11;40.55
57574;BME280;68988;49.000;21.242;2023-04-12T11:49:50;97786.13;;;24.15;40.17
57574;BME280;68988;49.000;21.242;2023-04-12T11:52:17;97784.25;;;24.15;40.58
57574;BME280;68988;49.000;21.242;2023-04-12T11:54:47;97788.28;;;24.12;40.57
57574;BME280;68988;49.000;21.242;2023-04-12T11:57:15;97784.44;;;24.19;40.64
57574;BME280;68988;49.000;21.242;2023-04-12T11:59:46;97789.81;;;24.19;40.68
57574;BME280;68988;49.000;21.242;2023-04-12T12:02:12;97789.22;;;24.22;40.59
57574;BME280;68988;49.000;21.242;2023-04-12T12:04:46;97782.31;;;24.21;40.46
57574;BME280;68988;49.000;21.242;2023-04-12T12:07:14;97785.56;;;24.18;40.50
57574;BME280;68988;49.000;21.242;2023-04-12T12:09:41;97784.41;;;24.24;40.55
57574;BME280;68988;49.000;21.242;2023-04-12T12:12:10;97782.88;;;24.18;40.45
57574;BME280;68988;49.000;21.242;2023-04-12T12:14:35;97777.44;;;24.23;40.60
57574;BME280;68988;49.000;21.242;2023-04-12T12:17:01;97776.38;;;24.24;40.46
57574;BME280;68988;49.000;21.242;2023-04-12T12:19:36;97781.47;;;24.20;40.37
57574;BME280;68988;49.000;21.242;2023-04-12T12:22:11;97775.56;;;24.23;40.67
57574;BME280;68988;49.000;21.242;2023-04-12T12:24:38;97764.63;;;24.20;40.44
57574;BME280;68988;49.000;21.242;2023-04-12T12:27:03;97768.31;;;24.24;40.47
57574;BME280;68988;49.000;21.242;2023-04-12T12:29:38;97768.81;;;24.26;40.38
57574;BME280;68988;49.000;21.242;2023-04-12T12:32:11;97762.97;;;24.24;40.43
57574;BME280;68988;49.000;21.242;2023-04-12T12:34:39;97756.00;;;24.23;40.43
57574;BME280;68988;49.000;21.242;2023-04-12T12:37:11;97763.47;;;24.26;40.60
57574;BME280;68988;49.000;21.242;2023-04-12T12:39:37;97763.56;;;24.21;40.79
57574;BME280;68988;49.000;21.242;2023-04-12T12:42:03;97758.69;;;24.23;40.73
57574;BME280;68988;49.000;21.242;2023-04-12T12:44:30;97756.50;;;24.25;40.58
57574;BME280;68988;49.000;21.242;2023-04-12T12:47:00;97763.47;;;24.26;40.57
57574;BME280;68988;49.000;21.242;2023-04-12T12:49:26;97745.22;;;24.28;40.49
57574;BME280;68988;49.000;21.242;2023-04-12T12:51:51;97752.16;;;24.29;40.53
57574;BME280;68988;49.000;21.242;2023-04-12T12:54:17;97742.03;;;24.26;40.52
57574;BME280;68988;49.000;21.242;2023-04-12T12:56:42;97736.38;;;24.27;40.54
57574;BME280;68988;49.000;21.242;2023-04-12T12:59:09;97741.44;;;24.29;40.59
57574;BME280;68988;49.000;21.242;2023-04-12T13:01:34;97743.56;;;24.32;40.58
57574;BME280;68988;49.000;21.242;2023-04-12T13:04:00;97737.41;;;24.31;40.55
57574;BME280;68988;49.000;21.242;2023-04-12T13:06:25;97736.09;;;24.29;40.29
57574;BME280;68988;49.000;21.242;2023-04-12T13:08:52;97741.75;;;24.27;40.52
57574;BME280;68988;49.000;21.242;2023-04-12T13:11:19;97736.09;;;24.29;40.63
57574;BME280;68988;49.000;21.242;2023-04-12T13:13:45;97732.09;;;24.26;40.40